sensor_id;sensor_type;location;lat;lon;timestamp;P1;durP1;ratioP1;P2;durP2;ratioP2
6354;SDS011;3210;48.708;9.030;2022-08-14T09:54:52;6.13;;;1.80;;
6354;SDS011;3210;48.708;9.030;2022-08-14T09:57:23;2.70;;;2.07;;
6354;SDS011;3210;48.708;9.030;2022-08-14T09:59:51;2.08;;;1.98;;
6354;SDS011;3210;48.708;9.030;2022-08-14T10:02:19;5.00;;;2.17;;
6354;SDS011;3210;48.708;9.030;2022-08-14T10:05:02;2.80;;;2.20;;
6354;SDS011;3210;48.708;9.030;2022-08-14T10:07:32;2.50;;;2.20;;
6354;SDS011;3210;48.708;9.030;2022-08-14T10:10:02;2.83;;;1.80;;
6354;SDS011;3210;48.708;9.030;2022-08-14T10:12:42;2.17;;;1.98;;
6354;SDS011;3210;48.708;9.030;2022-08-14T10:15:13;4.43;;;1.90;;
6354;SDS011;3210;48.708;9.030;2022-08-14T10:17:44;4.18;;;2.20;;
6354;SDS011;3210;48.708;9.030;2022-08-14T10:20:13;2.20;;;1.98;;
6354;SDS011;3210;48.708;9.030;2022-08-14T10:22:40;3.40;;;2.05;;
6354;SDS011;3210;48.708;9.030;2022-08-14T10:25:14;1.90;;;1.80;;
6354;SDS011;3210;48.708;9.030;2022-08-14T10:27:42;2.25;;;1.90;;
6354;SDS011;3210;48.708;9.030;2022-08-14T10:30:12;3.10;;;2.17;;
6354;SDS011;3210;48.708;9.030;2022-08-14T10:32:43;2.05;;;1.95;;
6354;SDS011;3210;48.708;9.030;2022-08-14T10:35:13;2.17;;;2.08;;
6354;SDS011;3210;48.708;9.030;2022-08-14T10:37:43;4.60;;;2.50;;
6354;SDS011;3210;48.708;9.030;2022-08-14T10:40:14;1.95;;;1.85;;
6354;SDS011;3210;48.708;9.030;2022-08-14T10:42:42;3.15;;;2.40;;
6354;SDS011;3210;48.708;9.030;2022-08-14T10:45:17;2.53;;;2.15;;
6354;SDS011;3210;48.708;9.030;2022-08-14T10:47:45;3.88;;;2.50;;
6354;SDS011;3210;48.708;9.030;2022-08-14T10:50:13;3.83;;;2.03;;
6354;SDS011;3210;48.708;9.030;2022-08-14T10:52:41;2.20;;;2.00;;
6354;SDS011;3210;48.708;9.030;2022-08-14T10:55:11;5.32;;;2.05;;
6354;SDS011;3210;48.708;9.030;2022-08-14T10:57:50;1.95;;;1.85;;
6354;SDS011;3210;48.708;9.030;2022-08-14T11:00:19;1.92;;;1.63;;
6354;SDS011;3210;48.708;9.030;2022-08-14T11:02:55;3.40;;;2.05;;
6354;SDS011;3210;48.708;9.030;2022-08-14T11:05:25;1.77;;;1.67;;
6354;SDS011;3210;48.708;9.030;2022-08-14T11:08:05;1.65;;;1.55;;
6354;SDS011;3210;48.708;9.030;2022-08-14T11:10:37;1.50;;;1.40;;
6354;SDS011;3210;48.708;9.030;2022-08-14T11:13:08;3.45;;;1.60;;
6354;SDS011;3210;48.708;9.030;2022-08-14T11:15:36;5.65;;;1.75;;
6354;SDS011;3210;48.708;9.030;2022-08-14T11:18:03;1.90;;;1.80;;
6354;SDS011;3210;48.708;9.030;2022-08-14T11:20:30;3.05;;;2.10;;
6354;SDS011;3210;48.708;9.030;2022-08-14T11:22:58;2.40;;;1.85;;
6354;SDS011;3210;48.708;9.030;2022-08-14T11:25:27;3.35;;;2.08;;
6354;SDS011;3210;48.708;9.030;2022-08-14T11:27:56;1.75;;;1.65;;
6354;SDS011;3210;48.708;9.030;2022-08-14T11:30:26;2.05;;;1.83;;
6354;SDS011;3210;48.708;9.030;2022-08-14T11:32:54;2.10;;;1.90;;
6354;SDS011;3210;48.708;9.030;2022-08-14T11:35:23;2.10;;;1.45;;
6354;SDS011;3210;48.708;9.030;2022-08-14T11:37:51;2.20;;;2.10;;
6354;SDS011;3210;48.708;9.030;2022-08-14T11:40:19;1.83;;;1.73;;
6354;SDS011;3210;48.708;9.030;2022-08-14T11:42:47;2.15;;;1.95;;
6354;SDS011;3210;48.708;9.030;2022-08-14T11:45:16;3.65;;;2.10;;
6354;SDS011;3210;48.708;9.030;2022-08-14T11:47:45;3.15;;;1.90;;
6354;SDS011;3210;48.708;9.030;2022-08-14T11:50:15;5.28;;;2.20;;
6354;SDS011;3210;48.708;9.030;2022-08-14T11:52:44;2.17;;;1.98;;
6354;SDS011;3210;48.708;9.030;2022-08-14T11:55:12;2.03;;;1.80;;
6354;SDS011;3210;48.708;9.030;2022-08-14T11:57:40;3.03;;;1.88;;
6354;SDS011;3210;48.708;9.030;2022-08-14T12:00:09;2.03;;;1.75;;
6354;SDS011;3210;48.708;9.030;2022-08-14T12:02:49;2.95;;;2.00;;
6354;SDS011;3210;48.708;9.030;2022-08-14T12:05:26;7.65;;;2.15;;
6354;SDS011;3210;48.708;9.030;2022-08-14T12:07:56;2.72;;;2.00;;
6354;SDS011;3210;48.708;9.030;2022-08-14T12:10:23;2.45;;;2.00;;
6354;SDS011;3210;48.708;9.030;2022-08-14T12:12:50;6.55;;;2.00;;
6354;SDS011;3210;48.708;9.030;2022-08-14T12:15:26;2.13;;;1.80;;
6354;SDS011;3210;48.708;9.030;2022-08-14T12:17:59;2.35;;;2.15;;
6354;SDS011;3210;48.708;9.030;2022-08-14T12:20:30;1.65;;;1.55;;
6354;SDS011;3210;48.708;9.030;2022-08-14T12:22:57;1.63;;;1.52;;
6354;SDS011;3210;48.708;9.030;2022-08-14T12:25:25;2.42;;;1.55;;
6354;SDS011;3210;48.708;9.030;2022-08-14T12:27:53;6.90;;;1.80;;
6354;SDS011;3210;48.708;9.030;2022-08-14T12:30:25;2.05;;;1.38;;
6354;SDS011;3210;48.708;9.030;2022-08-14T12:32:59;1.70;;;1.60;;
6354;SDS011;3210;48.708;9.030;2022-08-14T12:35:40;2.42;;;1.45;;
6354;SDS011;3210;48.708;9.030;2022-08-14T12:38:08;3.40;;;1.85;;
6354;SDS011;3210;48.708;9.030;2022-08-14T12:40:44;1.58;;;1.48;;
6354;SDS011;3210;48.708;9.030;2022-08-14T12:43:11;1.27;;;1.17;;
6354;SDS011;3210;48.708;9.030;2022-08-14T12:45:39;1.38;;;1.27;;
6354;SDS011;3210;48.708;9.030;2022-08-14T12:48:15;1.55;;;1.30;;
6354;SDS011;3210;48.708;9.030;2022-08-14T12:50:44;1.75;;;1.60;;
6354;SDS011;3210;48.708;9.030;2022-08-14T12:53:11;1.83;;;1.70;;
6354;SDS011;3210;48.708;9.030;2022-08-14T12:55:39;1.60;;;1.50;;
6354;SDS011;3210;48.708;9.030;2022-08-14T12:58:08;1.35;;;1.25;;
6354;SDS011;3210;48.708;9.030;2022-08-14T13:00:36;2.22;;;1.30;;
6354;SDS011;3210;48.708;9.030;2022-08-14T13:03:22;1.77;;;1.67;;
6354;SDS011;3210;48.708;9.030;2022-08-14T13:05:50;2.33;;;1.83;;
6354;SDS011;3210;48.708;9.030;2022-08-14T13:08:17;1.85;;;1.38;;
6354;SDS011;3210;48.708;9.030;2022-08-14T13:10:47;1.98;;;1.70;;
6354;SDS011;3210;48.708;9.030;2022-08-14T13:13:15;2.47;;;1.25;;
6354;SDS011;3210;48.708;9.030;2022-08-14T13:15:43;3.30;;;1.77;;
6354;SDS011;3210;48.708;9.030;2022-08-14T13:18:12;1.25;;;1.15;;
6354;SDS011;3210;48.708;9.030;2022-08-14T13:20:42;5.00;;;1.83;;
6354;SDS011;3210;48.708;9.030;2022-08-14T13:23:10;1.65;;;1.55;;
6354;SDS011;3210;48.708;9.030;2022-08-14T13:25:38;2.80;;;1.98;;
6354;SDS011;3210;48.708;9.030;2022-08-14T13:28:08;1.38;;;1.27;;
6354;SDS011;3210;48.708;9.030;2022-08-14T13:30:38;1.50;;;1.40;;
6354;SDS011;3210;48.708;9.030;2022-08-14T13:33:08;3.20;;;1.45;;
6354;SDS011;3210;48.708;9.030;2022-08-14T13:35:35;6.70;;;1.38;;
6354;SDS011;3210;48.708;9.030;2022-08-14T13:38:04;7.95;;;1.40;;
6354;SDS011;3210;48.708;9.030;2022-08-14T13:40:31;1.65;;;1.20;;
6354;SDS011;3210;48.708;9.030;2022-08-14T13:42:58;1.25;;;1.15;;
6354;SDS011;3210;48.708;9.030;2022-08-14T13:45:26;1.85;;;1.75;;
6354;SDS011;3210;48.708;9.030;2022-08-14T13:47:52;1.85;;;1.45;;
6354;SDS011;3210;48.708;9.030;2022-08-14T13:50:19;1.95;;;1.48;;
6354;SDS011;3210;48.708;9.030;2022-08-14T13:52:46;1.65;;;1.45;;
6354;SDS011;3210;48.708;9.030;2022-08-14T13:55:19;1.30;;;1.17;;
6354;SDS011;3210;48.708;9.030;2022-08-14T13:57:48;2.53;;;1.35;;
6354;SDS011;3210;48.708;9.030;2022-08-14T14:00:16;0.90;;;0.90;;
6354;SDS011;3210;48.708;9.030;2022-08-14T14:02:44;0.85;;;0.85;;
6354;SDS011;3210;48.708;9.030;2022-08-14T14:05:12;1.13;;;1.02;;
6354;SDS011;3210;48.708;9.030;2022-08-14T14:07:43;1.15;;;1.05;;
6354;SDS011;3210;48.708;9.030;2022-08-14T14:10:11;1.60;;;1.50;;
6354;SDS011;3210;48.708;9.030;2022-08-14T14:12:40;1.40;;;1.30;;
6354;SDS011;3210;48.708;9.030;2022-08-14T14:15:10;3.05;;;1.40;;
6354;SDS011;3210;48.708;9.030;2022-08-14T14:17:37;1.77;;;1.67;;
6354;SDS011;3210;48.708;9.030;2022-08-14T14:20:06;1.55;;;1.10;;
6354;SDS011;3210;48.708;9.030;2022-08-14T14:22:37;1.92;;;1.42;;
6354;SDS011;3210;48.708;9.030;2022-08-14T14:25:06;3.15;;;1.27;;
6354;SDS011;3210;48.708;9.030;2022-08-14T14:27:33;1.98;;;1.33;;
6354;SDS011;3210;48.708;9.030;2022-08-14T14:30:04;1.40;;;1.30;;
6354;SDS011;3210;48.708;9.030;2022-08-14T14:32:32;2.17;;;1.20;;
6354;SDS011;3210;48.708;9.030;2022-08-14T14:35:05;1.45;;;1.35;;
6354;SDS011;3210;48.708;9.030;2022-08-14T14:37:37;2.65;;;1.10;;
6354;SDS011;3210;48.708;9.030;2022-08-14T14:40:04;2.53;;;1.40;;
6354;SDS011;3210;48.708;9.030;2022-08-14T14:42:32;2.80;;;1.90;;
6354;SDS011;3210;48.708;9.030;2022-08-14T14:45:01;1.77;;;1.67;;
6354;SDS011;3210;48.708;9.030;2022-08-14T14:47:36;3.35;;;1.67;;
6354;SDS011;3210;48.708;9.030;2022-08-14T14:50:04;1.98;;;1.35;;
6354;SDS011;3210;48.708;9.030;2022-08-14T14:52:35;1.60;;;1.50;;
6354;SDS011;3210;48.708;9.030;2022-08-14T14:55:02;2.28;;;1.25;;
6354;SDS011;3210;48.708;9.030;2022-08-14T14:57:30;1.42;;;1.33;;
6354;SDS011;3210;48.708;9.030;2022-08-14T14:59:57;1.48;;;1.38;;
6354;SDS011;3210;48.708;9.030;2022-08-14T15:02:35;1.25;;;1.15;;
6354;SDS011;3210;48.708;9.030;2022-08-14T15:05:05;2.97;;;1.80;;
6354;SDS011;3210;48.708;9.030;2022-08-14T15:07:33;2.20;;;1.95;;
6354;SDS011;3210;48.708;9.030;2022-08-14T15:10:01;4.10;;;1.77;;
6354;SDS011;3210;48.708;9.030;2022-08-14T15:12:28;1.83;;;1.73;;
6354;SDS011;3210;48.708;9.030;2022-08-14T15:14:55;1.50;;;1.25;;
6354;SDS011;3210;48.708;9.030;2022-08-14T15:17:22;2.05;;;1.95;;
6354;SDS011;3210;48.708;9.030;2022-08-14T15:19:50;2.88;;;1.52;;
6354;SDS011;3210;48.708;9.030;2022-08-14T15:22:18;2.00;;;1.75;;
6354;SDS011;3210;48.708;9.030;2022-08-14T15:24:45;2.75;;;1.40;;
6354;SDS011;3210;48.708;9.030;2022-08-14T15:27:14;1.70;;;1.50;;
6354;SDS011;3210;48.708;9.030;2022-08-14T15:29:41;2.00;;;1.80;;
6354;SDS011;3210;48.708;9.030;2022-08-14T15:32:09;1.88;;;1.73;;
6354;SDS011;3210;48.708;9.030;2022-08-14T15:34:36;2.28;;;1.67;;
6354;SDS011;3210;48.708;9.030;2022-08-14T15:37:06;1.48;;;1.38;;
6354;SDS011;3210;48.708;9.030;2022-08-14T15:39:32;2.40;;;1.48;;
6354;SDS011;3210;48.708;9.030;2022-08-14T15:42:00;1.55;;;1.45;;
6354;SDS011;3210;48.708;9.030;2022-08-14T15:44:28;1.95;;;1.63;;
6354;SDS011;3210;48.708;9.030;2022-08-14T15:46:56;3.80;;;1.90;;
6354;SDS011;3210;48.708;9.030;2022-08-14T15:49:24;4.38;;;1.88;;
6354;SDS011;3210;48.708;9.030;2022-08-14T15:51:53;2.47;;;2.10;;
6354;SDS011;3210;48.708;9.030;2022-08-14T15:54:24;2.65;;;1.65;;
6354;SDS011;3210;48.708;9.030;2022-08-14T15:56:54;2.08;;;1.98;;
6354;SDS011;3210;48.708;9.030;2022-08-14T15:59:22;2.08;;;1.75;;
6354;SDS011;3210;48.708;9.030;2022-08-14T16:01:49;1.50;;;1.40;;
6354;SDS011;3210;48.708;9.030;2022-08-14T16:04:16;1.67;;;1.58;;
6354;SDS011;3210;48.708;9.030;2022-08-14T16:06:47;2.03;;;1.92;;
6354;SDS011;3210;48.708;9.030;2022-08-14T16:09:15;1.42;;;1.33;;
6354;SDS011;3210;48.708;9.030;2022-08-14T16:11:43;2.38;;;1.92;;
6354;SDS011;3210;48.708;9.030;2022-08-14T16:14:10;2.35;;;1.80;;
6354;SDS011;3210;48.708;9.030;2022-08-14T16:16:37;3.47;;;1.95;;
6354;SDS011;3210;48.708;9.030;2022-08-14T16:19:05;1.77;;;1.67;;
6354;SDS011;3210;48.708;9.030;2022-08-14T16:21:33;1.70;;;1.60;;
6354;SDS011;3210;48.708;9.030;2022-08-14T16:24:00;2.53;;;1.45;;
6354;SDS011;3210;48.708;9.030;2022-08-14T16:26:28;2.20;;;1.30;;
6354;SDS011;3210;48.708;9.030;2022-08-14T16:28:56;2.13;;;2.03;;
6354;SDS011;3210;48.708;9.030;2022-08-14T16:31:26;1.90;;;1.80;;
6354;SDS011;3210;48.708;9.030;2022-08-14T16:33:54;2.45;;;1.92;;
6354;SDS011;3210;48.708;9.030;2022-08-14T16:36:21;2.55;;;1.40;;
6354;SDS011;3210;48.708;9.030;2022-08-14T16:38:53;2.10;;;2.00;;
6354;SDS011;3210;48.708;9.030;2022-08-14T16:41:21;4.30;;;2.88;;
6354;SDS011;3210;48.708;9.030;2022-08-14T16:43:57;8.23;;;5.28;;
6354;SDS011;3210;48.708;9.030;2022-08-14T16:46:27;6.35;;;4.40;;
6354;SDS011;3210;48.708;9.030;2022-08-14T16:48:56;3.03;;;2.83;;
6354;SDS011;3210;48.708;9.030;2022-08-14T16:51:25;3.45;;;3.22;;
6354;SDS011;3210;48.708;9.030;2022-08-14T16:53:52;1.90;;;1.80;;
6354;SDS011;3210;48.708;9.030;2022-08-14T16:56:20;3.90;;;2.40;;
6354;SDS011;3210;48.708;9.030;2022-08-14T16:58:48;3.47;;;1.65;;
6354;SDS011;3210;48.708;9.030;2022-08-14T17:01:19;2.30;;;2.10;;
6354;SDS011;3210;48.708;9.030;2022-08-14T17:03:56;3.88;;;2.08;;
6354;SDS011;3210;48.708;9.030;2022-08-14T17:06:44;1.60;;;1.50;;
6354;SDS011;3210;48.708;9.030;2022-08-14T17:09:23;1.88;;;1.77;;
6354;SDS011;3210;48.708;9.030;2022-08-14T17:11:53;1.83;;;1.70;;
6354;SDS011;3210;48.708;9.030;2022-08-14T17:14:22;2.30;;;2.10;;
6354;SDS011;3210;48.708;9.030;2022-08-14T17:16:55;2.22;;;2.08;;
6354;SDS011;3210;48.708;9.030;2022-08-14T17:19:23;3.08;;;1.90;;
6354;SDS011;3210;48.708;9.030;2022-08-14T17:21:51;2.75;;;2.10;;
6354;SDS011;3210;48.708;9.030;2022-08-14T17:24:18;7.30;;;5.85;;
6354;SDS011;3210;48.708;9.030;2022-08-14T17:26:46;2.17;;;2.08;;
6354;SDS011;3210;48.708;9.030;2022-08-14T17:29:16;4.05;;;2.97;;
6354;SDS011;3210;48.708;9.030;2022-08-14T17:31:45;2.20;;;1.90;;
6354;SDS011;3210;48.708;9.030;2022-08-14T17:34:15;2.25;;;2.03;;
6354;SDS011;3210;48.708;9.030;2022-08-14T17:36:47;1.90;;;1.80;;
6354;SDS011;3210;48.708;9.030;2022-08-14T17:39:18;4.78;;;3.05;;
6354;SDS011;3210;48.708;9.030;2022-08-14T17:41:47;4.45;;;1.88;;
6354;SDS011;3210;48.708;9.030;2022-08-14T17:44:18;4.18;;;2.03;;
6354;SDS011;3210;48.708;9.030;2022-08-14T17:46:49;3.20;;;2.90;;
6354;SDS011;3210;48.708;9.030;2022-08-14T17:49:20;10.88;;;2.17;;
6354;SDS011;3210;48.708;9.030;2022-08-14T17:51:52;4.43;;;2.28;;
6354;SDS011;3210;48.708;9.030;2022-08-14T17:54:22;2.53;;;2.33;;
6354;SDS011;3210;48.708;9.030;2022-08-14T17:56:50;6.87;;;1.57;;
6354;SDS011;3210;48.708;9.030;2022-08-14T17:59:18;2.80;;;2.10;;
6354;SDS011;3210;48.708;9.030;2022-08-14T18:01:46;2.17;;;1.90;;
6354;SDS011;3210;48.708;9.030;2022-08-14T18:04:14;1.70;;;1.60;;
6354;SDS011;3210;48.708;9.030;2022-08-14T18:06:44;2.30;;;2.10;;
6354;SDS011;3210;48.708;9.030;2022-08-14T18:09:11;6.67;;;1.67;;
6354;SDS011;3210;48.708;9.030;2022-08-14T18:11:38;2.20;;;2.00;;
6354;SDS011;3210;48.708;9.030;2022-08-14T18:14:06;6.80;;;2.10;;
6354;SDS011;3210;48.708;9.030;2022-08-14T18:16:34;4.23;;;1.70;;
6354;SDS011;3210;48.708;9.030;2022-08-14T18:19:01;2.23;;;2.00;;
6354;SDS011;3210;48.708;9.030;2022-08-14T18:21:28;1.90;;;1.80;;
6354;SDS011;3210;48.708;9.030;2022-08-14T18:23:58;11.30;;;2.57;;
6354;SDS011;3210;48.708;9.030;2022-08-14T18:26:25;2.23;;;2.03;;
6354;SDS011;3210;48.708;9.030;2022-08-14T18:28:54;2.20;;;2.00;;
6354;SDS011;3210;48.708;9.030;2022-08-14T18:31:28;4.97;;;2.13;;
6354;SDS011;3210;48.708;9.030;2022-08-14T18:33:58;2.67;;;1.87;;
6354;SDS011;3210;48.708;9.030;2022-08-14T18:36:43;3.13;;;1.97;;
6354;SDS011;3210;48.708;9.030;2022-08-14T18:45:07;2.40;;;1.80;;
6354;SDS011;3210;48.708;9.030;2022-08-14T18:47:35;2.20;;;1.70;;
6354;SDS011;3210;48.708;9.030;2022-08-14T18:50:09;1.93;;;1.70;;
6354;SDS011;3210;48.708;9.030;2022-08-14T18:52:39;2.70;;;2.07;;
6354;SDS011;3210;48.708;9.030;2022-08-14T18:58:16;2.03;;;1.93;;
6354;SDS011;3210;48.708;9.030;2022-08-14T19:00:48;2.63;;;1.57;;
6354;SDS011;3210;48.708;9.030;2022-08-14T19:15:25;2.07;;;1.87;;
6354;SDS011;3210;48.708;9.030;2022-08-14T19:17:53;2.37;;;1.90;;
6354;SDS011;3210;48.708;9.030;2022-08-14T19:20:21;2.40;;;2.20;;
6354;SDS011;3210;48.708;9.030;2022-08-14T19:22:51;2.10;;;1.87;;
6354;SDS011;3210;48.708;9.030;2022-08-14T19:28:18;2.10;;;1.60;;
6354;SDS011;3210;48.708;9.030;2022-08-14T19:30:46;1.70;;;1.60;;
6354;SDS011;3210;48.708;9.030;2022-08-14T19:36:15;2.17;;;1.97;;
6354;SDS011;3210;48.708;9.030;2022-08-14T19:38:50;1.73;;;1.57;;
6354;SDS011;3210;48.708;9.030;2022-08-14T19:41:20;1.93;;;1.37;;
6354;SDS011;3210;48.708;9.030;2022-08-14T19:43:50;3.70;;;1.97;;
6354;SDS011;3210;48.708;9.030;2022-08-14T19:46:25;3.10;;;2.03;;
6354;SDS011;3210;48.708;9.030;2022-08-14T19:48:54;1.70;;;1.60;;
6354;SDS011;3210;48.708;9.030;2022-08-14T19:51:21;3.70;;;2.00;;
6354;SDS011;3210;48.708;9.030;2022-08-14T19:53:50;8.97;;;1.40;;
6354;SDS011;3210;48.708;9.030;2022-08-14T19:56:19;1.73;;;1.63;;
6354;SDS011;3210;48.708;9.030;2022-08-14T19:58:46;1.73;;;1.50;;
6354;SDS011;3210;48.708;9.030;2022-08-14T20:01:15;2.17;;;1.97;;
6354;SDS011;3210;48.708;9.030;2022-08-14T20:03:49;2.10;;;1.87;;
6354;SDS011;3210;48.708;9.030;2022-08-14T20:06:17;3.40;;;1.93;;
6354;SDS011;3210;48.708;9.030;2022-08-14T20:08:45;3.10;;;1.70;;
6354;SDS011;3210;48.708;9.030;2022-08-14T20:13:55;2.17;;;1.97;;
6354;SDS011;3210;48.708;9.030;2022-08-14T20:16:28;3.80;;;2.00;;
6354;SDS011;3210;48.708;9.030;2022-08-14T20:19:10;3.10;;;1.70;;
6354;SDS011;3210;48.708;9.030;2022-08-14T20:21:41;3.10;;;1.80;;
6354;SDS011;3210;48.708;9.030;2022-08-14T20:24:16;4.97;;;2.27;;
6354;SDS011;3210;48.708;9.030;2022-08-14T20:29:59;2.77;;;2.30;;
6354;SDS011;3210;48.708;9.030;2022-08-14T20:32:32;3.27;;;2.30;;
6354;SDS011;3210;48.708;9.030;2022-08-14T20:35:00;4.83;;;2.97;;
6354;SDS011;3210;48.708;9.030;2022-08-14T20:37:27;8.80;;;2.70;;
6354;SDS011;3210;48.708;9.030;2022-08-14T20:40:09;2.93;;;2.73;;
6354;SDS011;3210;48.708;9.030;2022-08-14T20:42:44;5.23;;;2.30;;
6354;SDS011;3210;48.708;9.030;2022-08-14T20:45:30;3.07;;;2.30;;
6354;SDS011;3210;48.708;9.030;2022-08-14T20:48:00;4.17;;;2.90;;
6354;SDS011;3210;48.708;9.030;2022-08-14T20:50:30;3.30;;;3.00;;
6354;SDS011;3210;48.708;9.030;2022-08-14T20:52:58;3.30;;;2.83;;
6354;SDS011;3210;48.708;9.030;2022-08-14T20:55:27;2.90;;;2.67;;
6354;SDS011;3210;48.708;9.030;2022-08-14T20:57:56;8.40;;;2.63;;
6354;SDS011;3210;48.708;9.030;2022-08-14T21:00:36;4.70;;;2.60;;
6354;SDS011;3210;48.708;9.030;2022-08-14T21:06:02;11.73;;;3.00;;
6354;SDS011;3210;48.708;9.030;2022-08-14T21:08:32;3.83;;;2.37;;
6354;SDS011;3210;48.708;9.030;2022-08-14T21:11:01;3.13;;;2.77;;
6354;SDS011;3210;48.708;9.030;2022-08-14T21:13:29;8.83;;;3.77;;
6354;SDS011;3210;48.708;9.030;2022-08-14T21:15:58;2.77;;;2.47;;
6354;SDS011;3210;48.708;9.030;2022-08-14T21:18:27;7.73;;;2.90;;
6354;SDS011;3210;48.708;9.030;2022-08-14T21:20:57;7.00;;;2.47;;
6354;SDS011;3210;48.708;9.030;2022-08-14T21:23:28;3.27;;;2.97;;
6354;SDS011;3210;48.708;9.030;2022-08-14T21:25:56;4.87;;;2.40;;
6354;SDS011;3210;48.708;9.030;2022-08-14T21:28:23;5.30;;;2.40;;
6354;SDS011;3210;48.708;9.030;2022-08-14T21:30:50;5.67;;;2.70;;
6354;SDS011;3210;48.708;9.030;2022-08-14T21:33:19;6.50;;;2.73;;
6354;SDS011;3210;48.708;9.030;2022-08-14T21:35:46;5.30;;;2.80;;
6354;SDS011;3210;48.708;9.030;2022-08-14T21:38:15;5.60;;;2.93;;
6354;SDS011;3210;48.708;9.030;2022-08-14T21:40:42;4.37;;;2.60;;
6354;SDS011;3210;48.708;9.030;2022-08-14T21:43:13;3.20;;;2.77;;
6354;SDS011;3210;48.708;9.030;2022-08-14T21:45:44;10.43;;;3.00;;
6354;SDS011;3210;48.708;9.030;2022-08-14T21:48:12;5.50;;;3.07;;
6354;SDS011;3210;48.708;9.030;2022-08-14T21:50:39;5.13;;;2.60;;
6354;SDS011;3210;48.708;9.030;2022-08-14T21:53:09;7.40;;;2.90;;
6354;SDS011;3210;48.708;9.030;2022-08-14T21:55:40;6.63;;;3.00;;
6354;SDS011;3210;48.708;9.030;2022-08-14T21:58:07;3.27;;;2.67;;
6354;SDS011;3210;48.708;9.030;2022-08-14T22:00:36;6.10;;;2.63;;
6354;SDS011;3210;48.708;9.030;2022-08-14T22:03:04;7.83;;;2.77;;
6354;SDS011;3210;48.708;9.030;2022-08-14T22:05:33;5.33;;;2.50;;
6354;SDS011;3210;48.708;9.030;2022-08-14T22:08:02;7.07;;;2.90;;
6354;SDS011;3210;48.708;9.030;2022-08-14T22:10:30;5.93;;;2.70;;
6354;SDS011;3210;48.708;9.030;2022-08-14T22:12:59;12.07;;;3.00;;
6354;SDS011;3210;48.708;9.030;2022-08-14T22:15:26;4.53;;;2.17;;
6354;SDS011;3210;48.708;9.030;2022-08-14T22:17:54;5.10;;;3.03;;
6354;SDS011;3210;48.708;9.030;2022-08-14T22:20:22;3.30;;;2.70;;
6354;SDS011;3210;48.708;9.030;2022-08-14T22:22:52;3.33;;;3.03;;
6354;SDS011;3210;48.708;9.030;2022-08-14T22:25:19;4.40;;;2.80;;
6354;SDS011;3210;48.708;9.030;2022-08-14T22:27:46;3.73;;;2.90;;
6354;SDS011;3210;48.708;9.030;2022-08-14T22:30:14;5.73;;;3.37;;
6354;SDS011;3210;48.708;9.030;2022-08-14T22:32:42;6.80;;;2.37;;
6354;SDS011;3210;48.708;9.030;2022-08-14T22:35:10;3.00;;;2.10;;
6354;SDS011;3210;48.708;9.030;2022-08-14T22:37:38;3.13;;;2.83;;
6354;SDS011;3210;48.708;9.030;2022-08-14T22:40:05;3.27;;;2.87;;
6354;SDS011;3210;48.708;9.030;2022-08-14T22:42:34;2.67;;;2.47;;
6354;SDS011;3210;48.708;9.030;2022-08-14T22:45:01;5.63;;;2.97;;
6354;SDS011;3210;48.708;9.030;2022-08-14T22:47:32;3.93;;;2.93;;
6354;SDS011;3210;48.708;9.030;2022-08-14T22:49:59;4.40;;;2.83;;
6354;SDS011;3210;48.708;9.030;2022-08-14T22:52:26;3.43;;;2.90;;
6354;SDS011;3210;48.708;9.030;2022-08-14T22:54:53;7.60;;;3.37;;
6354;SDS011;3210;48.708;9.030;2022-08-14T22:57:20;2.73;;;2.53;;
6354;SDS011;3210;48.708;9.030;2022-08-14T22:59:46;4.30;;;2.63;;
6354;SDS011;3210;48.708;9.030;2022-08-14T23:02:15;4.60;;;2.70;;
6354;SDS011;3210;48.708;9.030;2022-08-14T23:04:47;2.53;;;2.33;;
6354;SDS011;3210;48.708;9.030;2022-08-14T23:07:15;12.57;;;3.00;;
6354;SDS011;3210;48.708;9.030;2022-08-14T23:09:42;11.53;;;3.53;;
6354;SDS011;3210;48.708;9.030;2022-08-14T23:12:09;5.50;;;3.23;;
6354;SDS011;3210;48.708;9.030;2022-08-14T23:14:36;9.27;;;2.60;;
6354;SDS011;3210;48.708;9.030;2022-08-14T23:17:04;3.30;;;2.60;;
6354;SDS011;3210;48.708;9.030;2022-08-14T23:19:32;3.30;;;3.00;;
6354;SDS011;3210;48.708;9.030;2022-08-14T23:22:00;3.63;;;2.73;;
6354;SDS011;3210;48.708;9.030;2022-08-14T23:24:30;3.40;;;2.70;;
6354;SDS011;3210;48.708;9.030;2022-08-14T23:27:00;6.80;;;3.07;;
6354;SDS011;3210;48.708;9.030;2022-08-14T23:29:27;7.77;;;2.90;;
6354;SDS011;3210;48.708;9.030;2022-08-14T23:31:54;3.47;;;3.17;;
6354;SDS011;3210;48.708;9.030;2022-08-14T23:34:22;7.73;;;3.37;;
6354;SDS011;3210;48.708;9.030;2022-08-14T23:36:51;5.07;;;3.00;;
6354;SDS011;3210;48.708;9.030;2022-08-14T23:39:21;11.67;;;3.50;;
6354;SDS011;3210;48.708;9.030;2022-08-14T23:41:49;5.37;;;2.87;;
6354;SDS011;3210;48.708;9.030;2022-08-14T23:44:18;3.37;;;3.10;;
6354;SDS011;3210;48.708;9.030;2022-08-14T23:46:46;5.50;;;2.90;;
6354;SDS011;3210;48.708;9.030;2022-08-14T23:49:13;7.60;;;3.17;;
6354;SDS011;3210;48.708;9.030;2022-08-14T23:51:45;3.67;;;3.27;;
6354;SDS011;3210;48.708;9.030;2022-08-14T23:54:13;6.80;;;3.07;;
6354;SDS011;3210;48.708;9.030;2022-08-14T23:56:41;4.50;;;2.77;;
6354;SDS011;3210;48.708;9.030;2022-08-14T23:59:07;5.13;;;3.03;;
